sensor_id;sensor_type;location;lat;lon;timestamp;pressure;altitude;pressure_sealevel;temperature;humidity
62800;BME280;48842;51.046;13.796;2023-03-22T00:02:18;100114.84;;;14.64;64.80
62800;BME280;48842;51.046;13.796;2023-03-22T00:04:43;100117.50;;;14.64;65.06
62800;BME280;48842;51.046;13.796;2023-03-22T00:07:09;100116.59;;;14.65;65.42
62800;BME280;48842;51.046;13.796;2023-03-22T00:09:34;100114.84;;;14.66;65.28
62800;BME280;48842;51.046;13.796;2023-03-22T00:12:00;100108.66;;;14.67;65.26
62800;BME280;48842;51.046;13.796;2023-03-22T00:14:25;100109.56;;;14.68;65.49
62800;BME280;48842;51.046;13.796;2023-03-22T00:16:50;100110.41;;;14.68;65.45
62800;BME280;48842;51.046;13.796;2023-03-22T00:19:16;100102.50;;;14.68;65.49
62800;BME280;48842;51.046;13.796;2023-03-22T00:21:41;100110.44;;;14.66;65.39
62800;BME280;48842;51.046;13.796;2023-03-22T00:24:07;100111.34;;;14.65;65.50
62800;BME280;48842;51.046;13.796;2023-03-22T00:26:32;100109.59;;;14.64;65.57
62800;BME280;48842;51.046;13.796;2023-03-22T00:28:57;100104.34;;;14.63;65.26
62800;BME280;48842;51.046;13.796;2023-03-22T00:31:22;100105.25;;;14.62;65.66
62800;BME280;48842;51.046;13.796;2023-03-22T00:33:48;100098.19;;;14.61;65.30
62800;BME280;48842;51.046;13.796;2023-03-22T00:36:13;100090.28;;;14.61;65.26
62800;BME280;48842;51.046;13.796;2023-03-22T00:38:38;100093.81;;;14.61;65.68
62800;BME280;48842;51.046;13.796;2023-03-22T00:43:35;100084.19;;;14.59;65.80
62800;BME280;48842;51.046;13.796;2023-03-22T00:46:01;100078.03;;;14.58;65.57
62800;BME280;48842;51.046;13.796;2023-03-22T00:48:26;100079.81;;;14.58;65.49
62800;BME280;48842;51.046;13.796;2023-03-22T00:50:51;100077.16;;;14.58;65.69
62800;BME280;48842;51.046;13.796;2023-03-22T00:53:17;100064.88;;;14.57;65.76
62800;BME280;48842;51.046;13.796;2023-03-22T00:55:42;100069.34;;;14.53;65.77
62800;BME280;48842;51.046;13.796;2023-03-22T00:58:07;100064.13;;;14.50;65.54
62800;BME280;48842;51.046;13.796;2023-03-22T01:00:32;100068.56;;;14.46;65.65
62800;BME280;48842;51.046;13.796;2023-03-22T01:02:58;100067.75;;;14.43;65.49
62800;BME280;48842;51.046;13.796;2023-03-22T01:05:32;100066.91;;;14.39;65.50
62800;BME280;48842;51.046;13.796;2023-03-22T01:07:59;100059.94;;;14.35;65.75
62800;BME280;48842;51.046;13.796;2023-03-22T01:10:26;100063.56;;;14.31;65.83
62800;BME280;48842;51.046;13.796;2023-03-22T01:12:52;100063.59;;;14.29;65.68
62800;BME280;48842;51.046;13.796;2023-03-22T01:15:18;100062.69;;;14.29;65.97
62800;BME280;48842;51.046;13.796;2023-03-22T01:17:43;100068.88;;;14.26;66.11
62800;BME280;48842;51.046;13.796;2023-03-22T01:20:09;100057.53;;;14.23;65.75
62800;BME280;48842;51.046;13.796;2023-03-22T01:22:35;100061.94;;;14.19;65.98
62800;BME280;48842;51.046;13.796;2023-03-22T01:25:00;100055.91;;;14.14;65.87
62800;BME280;48842;51.046;13.796;2023-03-22T01:27:26;100062.09;;;14.11;65.93
62800;BME280;48842;51.046;13.796;2023-03-22T01:29:51;100056.88;;;14.08;66.11
62800;BME280;48842;51.046;13.796;2023-03-22T01:32:16;100047.25;;;14.06;66.00
62800;BME280;48842;51.046;13.796;2023-03-22T01:34:41;100049.09;;;14.01;66.04
62800;BME280;48842;51.046;13.796;2023-03-22T01:37:07;100041.28;;;13.94;66.22
62800;BME280;48842;51.046;13.796;2023-03-22T01:39:32;100036.94;;;13.90;66.10
62800;BME280;48842;51.046;13.796;2023-03-22T01:41:57;100028.25;;;13.84;66.31
62800;BME280;48842;51.046;13.796;2023-03-22T01:44:23;100038.84;;;13.81;66.00
62800;BME280;48842;51.046;13.796;2023-03-22T01:46:49;100043.28;;;13.75;66.28
62800;BME280;48842;51.046;13.796;2023-03-22T01:49:22;100038.06;;;13.72;66.15
62800;BME280;48842;51.046;13.796;2023-03-22T01:51:52;100046.00;;;13.69;66.31
62800;BME280;48842;51.046;13.796;2023-03-22T01:54:27;100038.16;;;13.66;66.45
62800;BME280;48842;51.046;13.796;2023-03-22T01:56:54;100032.94;;;13.63;66.01
62800;BME280;48842;51.046;13.796;2023-03-22T01:59:19;100025.97;;;13.59;66.42
62800;BME280;48842;51.046;13.796;2023-03-22T02:01:46;100032.19;;;13.53;66.48
62800;BME280;48842;51.046;13.796;2023-03-22T02:04:17;100031.38;;;13.50;66.51
62800;BME280;48842;51.046;13.796;2023-03-22T02:06:44;100036.66;;;13.47;66.62
62800;BME280;48842;51.046;13.796;2023-03-22T02:09:12;100029.69;;;13.42;66.47
62800;BME280;48842;51.046;13.796;2023-03-22T02:11:40;100029.75;;;13.39;66.40
62800;BME280;48842;51.046;13.796;2023-03-22T02:17:59;100023.69;;;13.30;66.99
62800;BME280;48842;51.046;13.796;2023-03-22T02:21:01;100022.88;;;13.24;66.77
62800;BME280;48842;51.046;13.796;2023-03-22T02:23:49;100028.13;;;13.26;67.08
62800;BME280;48842;51.046;13.796;2023-03-22T02:32:05;100034.34;;;13.19;67.13
62800;BME280;48842;51.046;13.796;2023-03-22T02:35:15;100034.38;;;13.16;67.25
62800;BME280;48842;51.046;13.796;2023-03-22T02:38:03;100042.28;;;13.13;67.15
62800;BME280;48842;51.046;13.796;2023-03-22T02:41:05;100029.19;;;13.08;66.86
62800;BME280;48842;51.046;13.796;2023-03-22T02:43:40;100029.25;;;13.03;66.70
62800;BME280;48842;51.046;13.796;2023-03-22T02:46:20;100019.66;;;12.99;67.17
62800;BME280;48842;51.046;13.796;2023-03-22T02:52:16;100027.66;;;12.90;67.04
62800;BME280;48842;51.046;13.796;2023-03-22T02:57:32;100025.13;;;12.81;66.83
62800;BME280;48842;51.046;13.796;2023-03-22T03:00:00;100020.78;;;12.78;66.79
62800;BME280;48842;51.046;13.796;2023-03-22T03:02:31;100015.53;;;12.75;66.80
62800;BME280;48842;51.046;13.796;2023-03-22T03:04:56;100019.94;;;12.71;66.72
62800;BME280;48842;51.046;13.796;2023-03-22T03:07:25;100021.72;;;12.69;67.06
62800;BME280;48842;51.046;13.796;2023-03-22T03:09:51;100023.47;;;12.67;66.93
62800;BME280;48842;51.046;13.796;2023-03-22T03:12:27;100023.53;;;12.64;67.22
62800;BME280;48842;51.046;13.796;2023-03-22T03:14:54;100025.34;;;12.59;67.27
62800;BME280;48842;51.046;13.796;2023-03-22T03:17:36;100024.47;;;12.57;66.89
62800;BME280;48842;51.046;13.796;2023-03-22T03:28:46;100023.72;;;12.46;67.61
62800;BME280;48842;51.046;13.796;2023-03-22T03:31:28;100025.47;;;12.44;67.50
62800;BME280;48842;51.046;13.796;2023-03-22T03:34:04;100027.25;;;12.42;67.39
62800;BME280;48842;51.046;13.796;2023-03-22T03:36:33;100023.75;;;12.39;67.00
62800;BME280;48842;51.046;13.796;2023-03-22T03:39:02;100020.28;;;12.37;67.43
62800;BME280;48842;51.046;13.796;2023-03-22T03:41:30;100015.91;;;12.36;66.97
62800;BME280;48842;51.046;13.796;2023-03-22T03:43:56;100011.56;;;12.34;67.16
62800;BME280;48842;51.046;13.796;2023-03-22T03:46:23;100023.81;;;12.32;67.17
62800;BME280;48842;51.046;13.796;2023-03-22T03:48:50;100011.56;;;12.29;67.47
62800;BME280;48842;51.046;13.796;2023-03-22T03:51:17;100017.72;;;12.30;67.34
62800;BME280;48842;51.046;13.796;2023-03-22T03:53:42;100023.84;;;12.29;67.03
62800;BME280;48842;51.046;13.796;2023-03-22T03:56:09;100020.34;;;12.30;66.96
62800;BME280;48842;51.046;13.796;2023-03-22T03:58:34;100027.38;;;12.26;67.15
62800;BME280;48842;51.046;13.796;2023-03-22T04:00:59;100017.75;;;12.22;67.19
62800;BME280;48842;51.046;13.796;2023-03-22T04:03:24;100022.16;;;12.20;67.46
62800;BME280;48842;51.046;13.796;2023-03-22T04:05:50;100022.16;;;12.20;67.00
62800;BME280;48842;51.046;13.796;2023-03-22T04:08:15;100023.06;;;12.17;67.21
62800;BME280;48842;51.046;13.796;2023-03-22T04:10:40;100025.69;;;12.16;67.11
62800;BME280;48842;51.046;13.796;2023-03-22T04:13:05;100021.31;;;12.15;66.92
62800;BME280;48842;51.046;13.796;2023-03-22T04:15:31;100023.97;;;12.13;67.29
62800;BME280;48842;51.046;13.796;2023-03-22T04:17:57;100016.97;;;12.12;67.25
62800;BME280;48842;51.046;13.796;2023-03-22T04:20:22;100023.09;;;12.13;67.12
62800;BME280;48842;51.046;13.796;2023-03-22T04:22:47;100017.84;;;12.11;67.00
62800;BME280;48842;51.046;13.796;2023-03-22T04:25:14;100027.50;;;12.11;66.87
62800;BME280;48842;51.046;13.796;2023-03-22T04:27:43;100022.25;;;12.09;67.00
62800;BME280;48842;51.046;13.796;2023-03-22T04:30:11;100017.00;;;12.06;66.56
62800;BME280;48842;51.046;13.796;2023-03-22T04:32:42;100021.41;;;12.05;66.71
62800;BME280;48842;51.046;13.796;2023-03-22T04:35:08;100020.56;;;12.03;66.57
62800;BME280;48842;51.046;13.796;2023-03-22T04:37:33;100015.31;;;12.00;66.19
62800;BME280;48842;51.046;13.796;2023-03-22T04:39:59;100023.22;;;11.99;66.06
62800;BME280;48842;51.046;13.796;2023-03-22T04:42:24;100017.97;;;11.97;66.53
62800;BME280;48842;51.046;13.796;2023-03-22T04:44:50;100024.09;;;11.96;66.30
62800;BME280;48842;51.046;13.796;2023-03-22T04:47:16;100017.09;;;11.95;66.12
62800;BME280;48842;51.046;13.796;2023-03-22T04:49:42;100007.47;;;11.96;66.14
62800;BME280;48842;51.046;13.796;2023-03-22T04:52:08;100011.00;;;11.93;65.87
62800;BME280;48842;51.046;13.796;2023-03-22T04:54:33;100010.06;;;11.93;65.68
62800;BME280;48842;51.046;13.796;2023-03-22T04:56:59;100019.72;;;11.91;65.50
62800;BME280;48842;51.046;13.796;2023-03-22T04:59:25;100015.38;;;11.88;65.52
62800;BME280;48842;51.046;13.796;2023-03-22T05:01:50;100012.75;;;11.88;65.66
62800;BME280;48842;51.046;13.796;2023-03-22T05:04:16;100022.38;;;11.89;65.24
62800;BME280;48842;51.046;13.796;2023-03-22T05:06:42;100015.38;;;11.88;65.38
62800;BME280;48842;51.046;13.796;2023-03-22T05:09:08;100011.88;;;11.89;65.03
62800;BME280;48842;51.046;13.796;2023-03-22T05:11:33;100021.50;;;11.90;64.83
62800;BME280;48842;51.046;13.796;2023-03-22T05:13:59;100017.97;;;11.91;64.72
62800;BME280;48842;51.046;13.796;2023-03-22T05:16:24;100022.34;;;11.92;64.55
62800;BME280;48842;51.046;13.796;2023-03-22T05:18:50;100010.06;;;11.93;64.38
62800;BME280;48842;51.046;13.796;2023-03-22T05:21:20;100005.75;;;11.93;64.33
62800;BME280;48842;51.046;13.796;2023-03-22T05:23:46;100013.63;;;11.93;64.23
62800;BME280;48842;51.046;13.796;2023-03-22T05:26:12;100011.84;;;11.94;64.79
62800;BME280;48842;51.046;13.796;2023-03-22T05:28:42;100005.72;;;11.96;64.46
62800;BME280;48842;51.046;13.796;2023-03-22T05:31:08;100007.47;;;11.97;64.32
62800;BME280;48842;51.046;13.796;2023-03-22T05:33:35;100013.56;;;11.99;64.02
62800;BME280;48842;51.046;13.796;2023-03-22T05:36:00;100017.94;;;12.02;64.18
62800;BME280;48842;51.046;13.796;2023-03-22T05:38:26;100017.91;;;12.05;63.70
62800;BME280;48842;51.046;13.796;2023-03-22T05:40:51;100010.88;;;12.09;63.79
62800;BME280;48842;51.046;13.796;2023-03-22T05:43:17;100016.06;;;12.13;63.46
62800;BME280;48842;51.046;13.796;2023-03-22T05:45:43;100015.16;;;12.19;63.56
62800;BME280;48842;51.046;13.796;2023-03-22T05:48:10;100008.97;;;12.28;63.56
62800;BME280;48842;51.046;13.796;2023-03-22T05:50:44;100015.88;;;12.38;63.14
62800;BME280;48842;51.046;13.796;2023-03-22T05:53:09;100013.25;;;12.43;63.37
62800;BME280;48842;51.046;13.796;2023-03-22T05:55:36;100013.22;;;12.46;63.28
62800;BME280;48842;51.046;13.796;2023-03-22T05:58:01;100010.53;;;12.50;63.24
62800;BME280;48842;51.046;13.796;2023-03-22T06:00:27;100009.63;;;12.53;62.87
62800;BME280;48842;51.046;13.796;2023-03-22T06:02:56;100009.59;;;12.56;62.93
62800;BME280;48842;51.046;13.796;2023-03-22T06:05:24;100007.75;;;12.64;63.33
62800;BME280;48842;51.046;13.796;2023-03-22T06:07:50;100005.09;;;12.69;63.18
62800;BME280;48842;51.046;13.796;2023-03-22T06:10:15;100009.38;;;12.76;63.28
62800;BME280;48842;51.046;13.796;2023-03-22T06:12:42;100009.34;;;12.82;62.72
62800;BME280;48842;51.046;13.796;2023-03-22T06:15:08;100021.56;;;12.88;63.01
62800;BME280;48842;51.046;13.796;2023-03-22T06:17:34;100015.31;;;12.97;62.42
62800;BME280;48842;51.046;13.796;2023-03-22T06:19:59;100002.97;;;13.03;61.92
62800;BME280;48842;51.046;13.796;2023-03-22T06:22:24;100000.25;;;13.09;61.84
62800;BME280;48842;51.046;13.796;2023-03-22T06:24:50;100001.94;;;13.15;61.65
62800;BME280;48842;51.046;13.796;2023-03-22T06:27:15;99994.84;;;13.22;61.04
62800;BME280;48842;51.046;13.796;2023-03-22T06:29:42;99995.63;;;13.28;61.37
62800;BME280;48842;51.046;13.796;2023-03-22T06:32:07;99990.34;;;13.35;61.43
62800;BME280;48842;51.046;13.796;2023-03-22T06:34:32;99994.66;;;13.40;61.35
62800;BME280;48842;51.046;13.796;2023-03-22T06:36:58;100000.72;;;13.46;61.17
62800;BME280;48842;51.046;13.796;2023-03-22T06:39:23;99999.75;;;13.53;61.08
62800;BME280;48842;51.046;13.796;2023-03-22T06:41:49;99994.38;;;13.59;60.95
62800;BME280;48842;51.046;13.796;2023-03-22T06:44:14;99996.94;;;13.64;60.61
62800;BME280;48842;51.046;13.796;2023-03-22T06:46:40;100001.25;;;13.69;60.55
62800;BME280;48842;51.046;13.796;2023-03-22T06:49:06;99994.16;;;13.76;60.52
62800;BME280;48842;51.046;13.796;2023-03-22T06:51:32;99997.56;;;13.81;60.18
62800;BME280;48842;51.046;13.796;2023-03-22T06:53:58;99987.84;;;13.88;60.23
62800;BME280;48842;51.046;13.796;2023-03-22T06:56:23;99994.75;;;13.95;60.28
62800;BME280;48842;51.046;13.796;2023-03-22T06:58:48;99993.75;;;14.02;59.90
62800;BME280;48842;51.046;13.796;2023-03-22T07:01:16;99992.75;;;14.11;59.92
62800;BME280;48842;51.046;13.796;2023-03-22T07:03:41;99997.00;;;14.18;59.87
62800;BME280;48842;51.046;13.796;2023-03-22T07:06:07;99998.69;;;14.24;59.67
62800;BME280;48842;51.046;13.796;2023-03-22T07:08:34;99988.88;;;14.30;59.61
62800;BME280;48842;51.046;13.796;2023-03-22T07:10:59;99989.66;;;14.37;59.68
62800;BME280;48842;51.046;13.796;2023-03-22T07:13:24;99989.56;;;14.43;59.30
62800;BME280;48842;51.046;13.796;2023-03-22T07:15:57;99991.25;;;14.47;59.11
62800;BME280;48842;51.046;13.796;2023-03-22T07:18:24;99990.31;;;14.50;58.60
62800;BME280;48842;51.046;13.796;2023-03-22T07:20:49;99992.94;;;14.52;58.58
62800;BME280;48842;51.046;13.796;2023-03-22T07:23:15;99996.44;;;14.51;58.35
62800;BME280;48842;51.046;13.796;2023-03-22T07:25:41;99990.25;;;14.53;58.52
62800;BME280;48842;51.046;13.796;2023-03-22T07:28:06;99992.88;;;14.55;58.55
62800;BME280;48842;51.046;13.796;2023-03-22T07:30:32;99985.78;;;14.57;58.69
62800;BME280;48842;51.046;13.796;2023-03-22T07:33:01;99996.34;;;14.57;58.85
62800;BME280;48842;51.046;13.796;2023-03-22T07:35:27;99991.06;;;14.57;58.60
62800;BME280;48842;51.046;13.796;2023-03-22T07:37:52;99993.66;;;14.58;58.30
62800;BME280;48842;51.046;13.796;2023-03-22T07:40:18;99986.66;;;14.59;58.07
62800;BME280;48842;51.046;13.796;2023-03-22T07:42:47;99984.00;;;14.60;58.40
62800;BME280;48842;51.046;13.796;2023-03-22T07:45:12;99989.25;;;14.62;58.24
62800;BME280;48842;51.046;13.796;2023-03-22T07:47:37;99982.22;;;14.62;58.01
62800;BME280;48842;51.046;13.796;2023-03-22T07:50:02;99975.13;;;14.66;58.13
62800;BME280;48842;51.046;13.796;2023-03-22T07:52:28;99987.38;;;14.69;58.01
62800;BME280;48842;51.046;13.796;2023-03-22T07:54:53;99983.75;;;14.74;57.45
62800;BME280;48842;51.046;13.796;2023-03-22T07:57:18;99976.63;;;14.79;57.45
62800;BME280;48842;51.046;13.796;2023-03-22T07:59:43;99980.91;;;14.85;57.03
62800;BME280;48842;51.046;13.796;2023-03-22T08:02:09;99977.25;;;14.91;57.23
62800;BME280;48842;51.046;13.796;2023-03-22T08:04:35;99985.13;;;14.95;56.53
62800;BME280;48842;51.046;13.796;2023-03-22T08:07:00;99981.47;;;15.03;56.47
62800;BME280;48842;51.046;13.796;2023-03-22T08:09:25;99976.00;;;15.10;56.60
62800;BME280;48842;51.046;13.796;2023-03-22T08:11:51;99978.38;;;15.23;56.45
62800;BME280;48842;51.046;13.796;2023-03-22T08:14:16;99979.81;;;15.39;56.07
62800;BME280;48842;51.046;13.796;2023-03-22T08:16:42;99981.25;;;15.54;55.54
62800;BME280;48842;51.046;13.796;2023-03-22T08:19:08;99976.47;;;15.70;55.46
62800;BME280;48842;51.046;13.796;2023-03-22T08:21:34;99983.44;;;15.74;53.49
62800;BME280;48842;51.046;13.796;2023-03-22T08:23:59;99971.91;;;15.77;53.56
62800;BME280;48842;51.046;13.796;2023-03-22T08:26:25;99970.94;;;15.82;53.17
62800;BME280;48842;51.046;13.796;2023-03-22T08:28:51;99971.63;;;15.91;52.70
62800;BME280;48842;51.046;13.796;2023-03-22T08:31:16;99972.28;;;15.99;52.35
62800;BME280;48842;51.046;13.796;2023-03-22T08:33:43;99971.19;;;16.09;52.26
62800;BME280;48842;51.046;13.796;2023-03-22T08:36:11;99970.03;;;16.19;50.98
62800;BME280;48842;51.046;13.796;2023-03-22T08:38:36;99970.63;;;16.31;50.86
62800;BME280;48842;51.046;13.796;2023-03-22T08:41:02;99965.19;;;16.37;49.55
62800;BME280;48842;51.046;13.796;2023-03-22T08:43:28;99958.13;;;16.37;48.49
62800;BME280;48842;51.046;13.796;2023-03-22T08:45:53;99965.03;;;16.43;49.06
62800;BME280;48842;51.046;13.796;2023-03-22T08:48:18;99965.75;;;16.48;47.76
62800;BME280;48842;51.046;13.796;2023-03-22T08:50:43;99956.94;;;16.49;47.66
62800;BME280;48842;51.046;13.796;2023-03-22T08:53:09;99960.31;;;16.54;47.15
62800;BME280;48842;51.046;13.796;2023-03-22T08:55:35;99960.84;;;16.67;46.97
62800;BME280;48842;51.046;13.796;2023-03-22T08:58:01;99956.94;;;16.82;46.88
62800;BME280;48842;51.046;13.796;2023-03-22T09:00:27;99961.97;;;16.91;46.59
62800;BME280;48842;51.046;13.796;2023-03-22T09:02:52;99954.94;;;16.90;45.31
62800;BME280;48842;51.046;13.796;2023-03-22T09:05:18;99949.50;;;16.95;45.91
62800;BME280;48842;51.046;13.796;2023-03-22T09:07:43;99964.19;;;17.07;45.64
62800;BME280;48842;51.046;13.796;2023-03-22T09:10:09;99952.69;;;17.08;44.92
62800;BME280;48842;51.046;13.796;2023-03-22T09:12:34;99950.91;;;17.08;44.04
62800;BME280;48842;51.046;13.796;2023-03-22T09:14:59;99954.66;;;17.01;43.48
62800;BME280;48842;51.046;13.796;2023-03-22T09:17:25;99945.63;;;17.08;44.40
62800;BME280;48842;51.046;13.796;2023-03-22T09:19:50;99948.75;;;17.21;44.31
62800;BME280;48842;51.046;13.796;2023-03-22T09:22:15;99943.09;;;17.34;44.22
62800;BME280;48842;51.046;13.796;2023-03-22T09:24:40;99936.59;;;17.44;43.97
62800;BME280;48842;51.046;13.796;2023-03-22T09:27:06;99934.50;;;17.55;44.10
62800;BME280;48842;51.046;13.796;2023-03-22T09:29:31;99935.09;;;17.63;43.63
62800;BME280;48842;51.046;13.796;2023-03-22T09:31:56;99925.25;;;17.69;42.67
62800;BME280;48842;51.046;13.796;2023-03-22T09:34:21;99922.28;;;17.78;43.11
62800;BME280;48842;51.046;13.796;2023-03-22T09:36:47;99913.00;;;17.93;43.45
62800;BME280;48842;51.046;13.796;2023-03-22T09:39:12;99916.00;;;18.09;43.36
62800;BME280;48842;51.046;13.796;2023-03-22T09:41:45;99914.56;;;18.25;42.94
62800;BME280;48842;51.046;13.796;2023-03-22T09:44:15;99914.34;;;18.31;41.43
62800;BME280;48842;51.046;13.796;2023-03-22T09:46:45;99897.34;;;18.37;41.92
62800;BME280;48842;51.046;13.796;2023-03-22T09:49:16;99902.97;;;18.28;41.24
62800;BME280;48842;51.046;13.796;2023-03-22T09:51:44;99898.53;;;18.28;41.61
62800;BME280;48842;51.046;13.796;2023-03-22T09:56:39;99896.81;;;18.27;41.65
62800;BME280;48842;51.046;13.796;2023-03-22T09:59:14;99882.75;;;18.25;40.96
62800;BME280;48842;51.046;13.796;2023-03-22T10:01:57;99899.50;;;18.26;40.86
62800;BME280;48842;51.046;13.796;2023-03-22T10:07:32;99881.06;;;18.23;39.44
62800;BME280;48842;51.046;13.796;2023-03-22T10:10:15;99877.75;;;18.16;39.58
62800;BME280;48842;51.046;13.796;2023-03-22T10:12:48;99883.06;;;18.16;39.78
62800;BME280;48842;51.046;13.796;2023-03-22T10:15:18;99858.81;;;18.27;39.72
62800;BME280;48842;51.046;13.796;2023-03-22T10:17:49;99878.63;;;18.42;39.16
62800;BME280;48842;51.046;13.796;2023-03-22T10:22:45;99883.22;;;18.37;38.97
62800;BME280;48842;51.046;13.796;2023-03-22T10:25:17;99874.63;;;18.30;38.44
62800;BME280;48842;51.046;13.796;2023-03-22T10:27:45;99874.94;;;18.21;38.81
62800;BME280;48842;51.046;13.796;2023-03-22T10:30:19;99868.66;;;17.98;38.56
62800;BME280;48842;51.046;13.796;2023-03-22T10:32:58;99867.53;;;18.05;39.27
62800;BME280;48842;51.046;13.796;2023-03-22T10:35:25;99861.66;;;17.95;38.85
62800;BME280;48842;51.046;13.796;2023-03-22T10:37:51;99848.31;;;17.99;38.97
62800;BME280;48842;51.046;13.796;2023-03-22T10:40:29;99854.50;;;17.99;39.00
62800;BME280;48842;51.046;13.796;2023-03-22T10:42:58;99853.88;;;17.91;38.97
62800;BME280;48842;51.046;13.796;2023-03-22T10:45:25;99848.53;;;17.92;39.29
62800;BME280;48842;51.046;13.796;2023-03-22T10:48:09;99844.84;;;17.96;39.05
62800;BME280;48842;51.046;13.796;2023-03-22T10:50:37;99841.56;;;17.88;39.35
62800;BME280;48842;51.046;13.796;2023-03-22T10:53:05;99853.78;;;17.94;39.17
62800;BME280;48842;51.046;13.796;2023-03-22T10:55:41;99833.25;;;18.01;38.85
62800;BME280;48842;51.046;13.796;2023-03-22T10:58:18;99832.97;;;18.08;39.08
62800;BME280;48842;51.046;13.796;2023-03-22T11:00:48;99836.28;;;18.13;39.11
62800;BME280;48842;51.046;13.796;2023-03-22T11:03:40;99828.31;;;18.15;39.34
62800;BME280;48842;51.046;13.796;2023-03-22T11:06:27;99842.16;;;18.23;39.31
62800;BME280;48842;51.046;13.796;2023-03-22T11:09:19;99831.31;;;18.29;38.95
62800;BME280;48842;51.046;13.796;2023-03-22T11:11:55;99838.66;;;18.46;39.17
62800;BME280;48842;51.046;13.796;2023-03-22T11:14:26;99828.59;;;18.56;38.41
62800;BME280;48842;51.046;13.796;2023-03-22T11:17:13;99818.81;;;18.57;37.73
62800;BME280;48842;51.046;13.796;2023-03-22T11:19:51;99819.41;;;18.41;37.65
62800;BME280;48842;51.046;13.796;2023-03-22T11:22:34;99810.13;;;18.53;38.23
62800;BME280;48842;51.046;13.796;2023-03-22T11:25:02;99796.75;;;18.56;38.31
62800;BME280;48842;51.046;13.796;2023-03-22T11:27:32;99800.69;;;18.46;38.22
62800;BME280;48842;51.046;13.796;2023-03-22T11:30:17;99788.22;;;18.48;38.37
62800;BME280;48842;51.046;13.796;2023-03-22T11:32:44;99786.94;;;18.58;38.34
62800;BME280;48842;51.046;13.796;2023-03-22T11:35:13;99791.31;;;18.59;37.87
62800;BME280;48842;51.046;13.796;2023-03-22T11:37:43;99781.13;;;18.72;38.10
62800;BME280;48842;51.046;13.796;2023-03-22T11:40:15;99789.59;;;18.58;38.04
62800;BME280;48842;51.046;13.796;2023-03-22T11:42:41;99769.13;;;18.62;37.80
62800;BME280;48842;51.046;13.796;2023-03-22T11:45:13;99763.44;;;18.71;38.11
62800;BME280;48842;51.046;13.796;2023-03-22T11:47:48;99759.81;;;18.74;37.90
62800;BME280;48842;51.046;13.796;2023-03-22T11:50:25;99748.03;;;18.81;37.90
62800;BME280;48842;51.046;13.796;2023-03-22T11:52:51;99743.38;;;18.88;37.94
62800;BME280;48842;51.046;13.796;2023-03-22T11:55:18;99735.34;;;18.89;37.72
62800;BME280;48842;51.046;13.796;2023-03-22T11:57:44;99739.88;;;18.87;37.54
62800;BME280;48842;51.046;13.796;2023-03-22T12:00:18;99738.56;;;18.97;37.84
62800;BME280;48842;51.046;13.796;2023-03-22T12:02:52;99731.25;;;19.02;37.33
62800;BME280;48842;51.046;13.796;2023-03-22T12:05:27;99730.22;;;19.07;37.32
62800;BME280;48842;51.046;13.796;2023-03-22T12:08:01;99723.25;;;19.04;37.34
62800;BME280;48842;51.046;13.796;2023-03-22T12:10:30;99729.41;;;19.05;37.35
62800;BME280;48842;51.046;13.796;2023-03-22T12:13:00;99724.91;;;19.07;37.73
62800;BME280;48842;51.046;13.796;2023-03-22T12:15:33;99724.59;;;19.14;37.41
62800;BME280;48842;51.046;13.796;2023-03-22T12:18:13;99718.16;;;19.20;37.35
62800;BME280;48842;51.046;13.796;2023-03-22T12:20:43;99702.75;;;19.28;37.61
62800;BME280;48842;51.046;13.796;2023-03-22T12:23:14;99705.97;;;19.36;37.34
62800;BME280;48842;51.046;13.796;2023-03-22T12:25:45;99704.66;;;19.47;36.94
62800;BME280;48842;51.046;13.796;2023-03-22T12:28:16;99704.09;;;19.59;37.42
62800;BME280;48842;51.046;13.796;2023-03-22T12:30:46;99692.94;;;19.71;37.55
62800;BME280;48842;51.046;13.796;2023-03-22T12:33:19;99707.44;;;19.85;37.27
62800;BME280;48842;51.046;13.796;2023-03-22T12:35:50;99702.97;;;19.85;36.77
62800;BME280;48842;51.046;13.796;2023-03-22T12:38:28;99695.59;;;19.92;36.73
62800;BME280;48842;51.046;13.796;2023-03-22T12:41:01;99695.88;;;19.86;36.19
62800;BME280;48842;51.046;13.796;2023-03-22T12:43:41;99701.69;;;19.94;36.24
62800;BME280;48842;51.046;13.796;2023-03-22T12:46:17;99693.81;;;20.12;36.25
62800;BME280;48842;51.046;13.796;2023-03-22T12:49:05;99699.50;;;20.23;34.97
62800;BME280;48842;51.046;13.796;2023-03-22T12:51:36;99683.53;;;20.23;35.23
62800;BME280;48842;51.046;13.796;2023-03-22T12:54:02;99684.06;;;20.31;34.58
62800;BME280;48842;51.046;13.796;2023-03-22T12:56:35;99673.75;;;20.43;35.11
62800;BME280;48842;51.046;13.796;2023-03-22T12:59:04;99673.94;;;20.57;35.03
62800;BME280;48842;51.046;13.796;2023-03-22T13:01:35;99673.03;;;20.77;34.78
62800;BME280;48842;51.046;13.796;2023-03-22T13:07:16;99674.53;;;21.00;32.86
62800;BME280;48842;51.046;13.796;2023-03-22T13:09:54;99670.16;;;21.17;33.18
62800;BME280;48842;51.046;13.796;2023-03-22T13:27:57;99643.03;;;23.21;30.28
62800;BME280;48842;51.046;13.796;2023-03-22T13:30:33;99643.22;;;24.05;29.63
62800;BME280;48842;51.046;13.796;2023-03-22T13:35:43;99643.03;;;25.18;26.45
62800;BME280;48842;51.046;13.796;2023-03-22T13:38:16;99635.22;;;25.15;27.11
62800;BME280;48842;51.046;13.796;2023-03-22T13:41:04;99633.34;;;24.62;25.46
62800;BME280;48842;51.046;13.796;2023-03-22T13:43:42;99631.94;;;24.42;26.65
62800;BME280;48842;51.046;13.796;2023-03-22T13:53:57;99611.38;;;23.72;27.22
62800;BME280;48842;51.046;13.796;2023-03-22T14:02:25;99619.94;;;23.20;27.46
62800;BME280;48842;51.046;13.796;2023-03-22T14:04:55;99616.94;;;22.79;28.37